Time;durP1;ratioP1;P1;durP2;ratioP2;P2;SDS_P1;SDS_P2;PMS_P1;PMS_P2;Temp;Humidity;BMP_temperature;BMP_pressure;BME280_temperature;BME280_humidity;BME280_pressure;Samples;Min_cycle;Max_cycle;Signal;HPM_P1;HPM_P2
2021/03/30 00:01:18;;;;;;;;;;;;;;;20.16;42.68;102723.22;3096410;28;115039;-58
2021/03/30 00:02:49;;;;;;;;;;;;;;;20.14;42.84;102717.88;3100625;28;115283;-58
2021/03/30 00:04:21;;;;;;;;;;;;;;;20.16;42.48;102723.22;3109530;28;113946;-58
2021/03/30 00:05:52;;;;;;;;;;;;;;;20.16;42.27;102721.28;3106375;28;116485;-58
2021/03/30 00:07:23;;;;;;;;;;;;;;;20.14;42.73;102719.81;3114015;27;114688;-59
2021/03/30 00:08:54;;;;;;;;;;;;;;;20.14;42.78;102722.63;3105539;27;115798;-59
2021/03/30 00:10:29;;;;;;;;;;;;;;;20.14;43.20;102722.63;3096289;28;115672;-59
2021/03/30 00:12:02;;;;;;;;;;;;;;;20.13;43.34;102715.31;3096264;28;115921;-57
2021/03/30 00:13:33;;;;;;;;;;;;;;;20.12;42.81;102730.50;3094081;28;115830;-58
2021/03/30 00:15:06;;;;;;;;;;;;;;;20.12;42.83;102727.69;3095323;28;115787;-58
2021/03/30 00:16:37;;;;;;;;;;;;;;;20.12;43.23;102724.88;3093631;28;114733;-57
2021/03/30 00:18:09;;;;;;;;;;;;;;;20.14;43.25;102734.72;3095165;28;115760;-58
2021/03/30 00:19:40;;;;;;;;;;;;;;;20.11;43.79;102725.97;3094802;28;117816;-58
2021/03/30 00:21:12;;;;;;;;;;;;;;;20.13;43.41;102723.75;3092344;28;115746;-58
2021/03/30 00:22:43;;;;;;;;;;;;;;;20.12;43.78;102727.69;3097586;28;114975;-59
2021/03/30 00:24:15;;;;;;;;;;;;;;;20.09;43.48;102731.00;3095665;28;115822;-58
2021/03/30 00:25:46;;;;;;;;;;;;;;;20.10;43.81;102729.88;3099059;28;116370;-59
2021/03/30 00:27:17;;;;;;;;;;;;;;;20.09;43.58;102731.00;3121880;27;113868;-59
2021/03/30 00:28:48;;;;;;;;;;;;;;;20.10;43.73;102727.94;3096729;28;114765;-58
2021/03/30 00:30:20;;;;;;;;;;;;;;;20.12;43.65;102730.50;3085971;28;114069;-58
2021/03/30 00:31:51;;;;;;;;;;;;;;;20.11;43.51;102732.44;3082781;28;113764;-58
2021/03/30 00:33:23;;;;;;;;;;;;;;;20.12;43.51;102728.53;3098631;28;114730;-58
2021/03/30 00:34:54;;;;;;;;;;;;;;;20.13;43.72;102730.22;3094059;28;113875;-58
2021/03/30 00:36:25;;;;;;;;;;;;;;;20.13;43.68;102740.56;3092829;28;114029;-57
2021/03/30 00:37:56;;;;;;;;;;;;;;;20.12;43.83;102734.16;3091330;28;113764;-58
2021/03/30 00:39:27;;;;;;;;;;;;;;;20.09;43.73;102736.59;3096876;28;114159;-58
2021/03/30 00:40:59;;;;;;;;;;;;;;;20.08;43.54;102729.31;3119975;27;114182;-58
2021/03/30 00:42:30;;;;;;;;;;;;;;;20.08;43.60;102735.75;3095360;28;113884;-57
2021/03/30 00:44:08;;;;;;;;;;;;;;;20.08;43.58;102730.13;3118984;27;113820;-58
2021/03/30 00:45:39;;;;;;;;;;;;;;;20.08;43.56;102735.75;3097142;28;114016;-59
2021/03/30 00:47:12;;;;;;;;;;;;;;;20.12;43.56;102736.09;3113741;27;113934;-58
2021/03/30 00:48:46;;;;;;;;;;;;;;;20.10;43.73;102725.13;3097444;27;115050;-57
2021/03/30 00:50:21;;;;;;;;;;;;;;;20.12;43.42;102727.69;3096792;28;115350;-58
2021/03/30 00:51:52;;;;;;;;;;;;;;;20.11;43.51;102728.78;3101772;28;115125;-59
2021/03/30 00:53:23;;;;;;;;;;;;;;;20.10;43.64;102724.28;3113583;27;115779;-58
2021/03/30 00:54:54;;;;;;;;;;;;;;;20.06;43.80;102723.97;3101930;28;115200;-58
2021/03/30 00:56:26;;;;;;;;;;;;;;;20.08;43.68;102726.50;3102096;28;114362;-58
2021/03/30 00:57:57;;;;;;;;;;;;;;;20.08;43.92;102720.91;3118618;27;115147;-58
2021/03/30 00:59:28;;;;;;;;;;;;;;;20.08;43.60;102729.31;3102021;27;115575;-59
2021/03/30 01:01:00;;;;;;;;;;;;;;;20.07;43.62;102727.63;3094637;28;115041;-58
2021/03/30 01:02:31;;;;;;;;;;;;;;;20.07;43.65;102728.47;3085482;28;115842;-58
2021/03/30 01:04:02;;;;;;;;;;;;;;;20.07;43.68;102733.22;3087748;28;115099;-58
2021/03/30 01:05:33;;;;;;;;;;;;;;;20.07;43.79;102722.84;3094341;28;114172;-59
2021/03/30 01:07:05;;;;;;;;;;;;;;;20.07;43.88;102727.63;3117367;27;115248;-58
2021/03/30 01:08:49;;;;;;;;;;;;;;;20.06;43.77;102721.16;3099156;27;115244;-58
2021/03/30 01:10:32;;;;;;;;;;;;;;;20.06;44.07;102725.91;3112241;27;115840;-58
2021/03/30 01:12:11;;;;;;;;;;;;;;;20.06;43.61;102721.16;3092474;28;116207;-59
2021/03/30 01:13:52;;;;;;;;;;;;;;;20.06;43.95;102711.88;3087259;28;116069;-58
2021/03/30 01:15:32;;;;;;;;;;;;;;;20.07;43.59;102716.41;3086829;28;115777;-59
2021/03/30 01:17:03;;;;;;;;;;;;;;;20.08;43.60;102718.09;3088942;28;114242;-58
2021/03/30 01:18:39;;;;;;;;;;;;;;;20.10;43.79;102721.47;3085332;28;117167;-58
2021/03/30 01:20:30;;;;;;;;;;;;;;;20.07;43.97;102717.25;3087469;28;115783;-58
2021/03/30 01:22:04;;;;;;;;;;;;;;;20.07;43.59;102716.41;3086669;28;115975;-58
2021/03/30 01:23:36;;;;;;;;;;;;;;;20.05;43.59;102719.44;3087366;28;114674;-58
2021/03/30 01:25:08;;;;;;;;;;;;;;;20.08;43.77;102723.72;3087372;28;115902;-58
2021/03/30 01:26:49;;;;;;;;;;;;;;;20.05;43.70;102710.19;3086701;28;115912;-59
2021/03/30 01:28:26;;;;;;;;;;;;;;;20.06;43.97;102709.94;3092934;28;115736;-57
2021/03/30 01:29:58;;;;;;;;;;;;;;;20.04;43.99;102717.75;3089644;28;115849;-58
2021/03/30 01:31:31;;;;;;;;;;;;;;;20.03;43.82;102706.81;3105229;28;115781;-58
2021/03/30 01:33:12;;;;;;;;;;;;;;;20.05;43.91;102724.22;3100774;28;118351;-59
2021/03/30 01:34:44;;;;;;;;;;;;;;;20.05;43.86;102713.00;3089959;28;114012;-58
2021/03/30 01:36:17;;;;;;;;;;;;;;;20.06;43.77;102714.69;3083150;28;113781;-58
2021/03/30 01:37:49;;;;;;;;;;;;;;;20.06;44.08;102711.88;3105051;28;114011;-58
2021/03/30 01:39:21;;;;;;;;;;;;;;;20.06;44.25;102714.69;3091751;28;113697;-57
2021/03/30 01:40:54;;;;;;;;;;;;;;;20.04;44.17;102709.31;3093200;28;114453;-58
2021/03/30 01:42:27;;;;;;;;;;;;;;;20.05;44.39;102702.63;3095014;28;114281;-58
2021/03/30 01:43:59;;;;;;;;;;;;;;;20.05;43.99;102705.41;3095841;28;114116;-58
2021/03/30 01:45:32;;;;;;;;;;;;;;;20.05;43.98;102702.63;3095621;28;113918;-59
2021/03/30 01:47:03;;;;;;;;;;;;;;;20.03;43.94;102701.19;3093961;28;113798;-58
2021/03/30 01:48:35;;;;;;;;;;;;;;;20.04;44.09;102697.25;3095149;28;113769;-58
2021/03/30 01:50:07;;;;;;;;;;;;;;;20.02;43.91;102697.53;3091800;28;114010;-57
2021/03/30 01:51:38;;;;;;;;;;;;;;;20.03;43.83;102695.59;3091143;28;114093;-58
2021/03/30 01:53:10;;;;;;;;;;;;;;;20.04;43.83;102694.44;3103842;28;114226;-57
2021/03/30 01:54:42;;;;;;;;;;;;;;;20.04;43.82;102700.91;3100448;28;114077;-58
2021/03/30 01:56:14;;;;;;;;;;;;;;;20.03;43.79;102699.25;3094721;28;114132;-59
2021/03/30 01:57:47;;;;;;;;;;;;;;;20.02;43.75;102703.16;3094399;28;115271;-58
2021/03/30 01:59:19;;;;;;;;;;;;;;;20.02;43.90;102699.50;3094678;28;114888;-59
2021/03/30 02:00:53;;;;;;;;;;;;;;;20.00;43.94;102694.13;3091595;28;115447;-59
2021/03/30 02:02:24;;;;;;;;;;;;;;;20.02;43.78;102696.69;3089347;28;114129;-59
2021/03/30 02:03:57;;;;;;;;;;;;;;;19.98;43.90;102674.78;3091837;28;115823;-58
2021/03/30 02:05:28;;;;;;;;;;;;;;;20.01;43.87;102678.16;3088170;28;113922;-58
2021/03/30 02:07:00;;;;;;;;;;;;;;;19.99;44.01;102690.47;3113519;27;115142;-58
2021/03/30 02:08:32;;;;;;;;;;;;;;;20.01;44.08;102683.75;3100804;27;115354;-58
2021/03/30 02:10:09;;;;;;;;;;;;;;;19.98;44.04;102690.75;3098085;27;115150;-58
2021/03/30 02:13:27;;;;;;;;;;;;;;;19.98;44.23;102686.00;3090925;28;115493;-58
2021/03/30 02:14:58;;;;;;;;;;;;;;;19.98;43.74;102686.00;3094582;28;115141;-58
2021/03/30 02:16:33;;;;;;;;;;;;;;;19.98;43.90;102687.94;3097284;28;115188;-59
2021/03/30 02:18:05;;;;;;;;;;;;;;;19.95;44.25;102683.69;3096328;28;115890;-59
2021/03/30 02:19:46;;;;;;;;;;;;;;;19.97;43.98;102684.28;3107365;28;115942;-58
2021/03/30 02:21:19;;;;;;;;;;;;;;;19.95;44.11;102683.69;3092231;28;115770;-59
2021/03/30 02:23:08;;;;;;;;;;;;;;;19.99;43.96;102679.25;3106710;28;116196;-58
2021/03/30 02:24:40;;;;;;;;;;;;;;;19.97;44.01;102675.88;3096280;28;115681;-58
2021/03/30 02:26:13;;;;;;;;;;;;;;;19.95;43.90;102669.66;3118848;27;115677;-59
2021/03/30 02:27:47;;;;;;;;;;;;;;;19.96;44.27;102668.56;3103046;27;115740;-58
2021/03/30 02:29:21;;;;;;;;;;;;;;;19.95;43.96;102666.88;3102122;27;114718;-58
2021/03/30 02:30:53;;;;;;;;;;;;;;;19.97;43.79;102661.84;3075393;28;115811;-58
2021/03/30 02:32:25;;;;;;;;;;;;;;;19.98;43.94;102668.31;3082862;28;118413;-58
2021/03/30 02:33:57;;;;;;;;;;;;;;;19.98;44.11;102671.97;3115829;27;115768;-61
2021/03/30 02:35:28;;;;;;;;;;;;;;;19.95;44.34;102669.66;3096756;28;115794;-59
2021/03/30 02:37:00;;;;;;;;;;;;;;;19.94;44.03;102665.16;3102153;27;115918;-58
2021/03/30 02:38:33;;;;;;;;;;;;;;;19.92;44.28;102664.59;3096423;28;115860;-58
2021/03/30 02:40:06;;;;;;;;;;;;;;;19.94;44.04;102665.16;3093034;28;113799;-58
2021/03/30 02:41:38;;;;;;;;;;;;;;;19.94;44.23;102662.34;3092916;28;113985;-60
2021/03/30 02:43:11;;;;;;;;;;;;;;;19.93;44.37;102665.44;3116295;27;113914;-59
2021/03/30 02:44:44;;;;;;;;;;;;;;;19.94;44.17;102661.53;3085255;28;113987;-58
2021/03/30 02:46:17;;;;;;;;;;;;;;;19.98;44.34;102662.69;3101886;28;114009;-58
2021/03/30 02:47:49;;;;;;;;;;;;;;;19.95;43.84;102657.59;3099619;27;113879;-58
2021/03/30 02:49:21;;;;;;;;;;;;;;;19.94;43.97;102665.16;3090301;28;114060;-57
2021/03/30 02:50:52;;;;;;;;;;;;;;;19.95;43.97;102661.25;3110360;27;114046;-58
2021/03/30 02:52:24;;;;;;;;;;;;;;;19.94;43.92;102661.53;3091539;27;113966;-58
2021/03/30 02:53:56;;;;;;;;;;;;;;;19.93;43.97;102665.44;3086238;28;114431;-58
2021/03/30 02:55:27;;;;;;;;;;;;;;;19.94;43.98;102658.72;3086441;28;114246;-58
2021/03/30 02:57:00;;;;;;;;;;;;;;;19.91;44.01;102659.22;3094276;28;113797;-58
2021/03/30 02:58:32;;;;;;;;;;;;;;;19.91;43.86;102657.28;3090215;28;114146;-59
2021/03/30 03:00:04;;;;;;;;;;;;;;;19.93;44.21;102659.84;3086480;28;113943;-58
2021/03/30 03:01:35;;;;;;;;;;;;;;;19.93;43.93;102657.88;3090463;28;113637;-58
2021/03/30 03:03:09;;;;;;;;;;;;;;;19.92;43.78;102650.56;3108751;28;115133;-58
2021/03/30 03:04:41;;;;;;;;;;;;;;;19.91;44.16;102657.28;3090153;28;115350;-58
2021/03/30 03:06:14;;;;;;;;;;;;;;;19.91;43.86;102660.09;3089519;28;115080;-59
2021/03/30 03:07:45;;;;;;;;;;;;;;;19.90;44.15;102658.38;3086204;28;114071;-58
2021/03/30 03:09:17;;;;;;;;;;;;;;;19.89;44.37;102662.31;3089038;28;115034;-58
2021/03/30 03:10:51;;;;;;;;;;;;;;;19.90;44.15;102664.00;3083835;28;115044;-57
2021/03/30 03:12:22;;;;;;;;;;;;;;;19.89;44.23;102655.88;3110036;28;115454;-58
2021/03/30 03:13:54;;;;;;;;;;;;;;;19.88;43.91;102656.97;3091152;28;115237;-58
2021/03/30 03:15:26;;;;;;;;;;;;;;;19.86;44.18;102648.81;3085705;28;115082;-58
2021/03/30 03:16:57;;;;;;;;;;;;;;;19.88;44.40;102651.34;3084526;28;115138;-58
2021/03/30 03:18:28;;;;;;;;;;;;;;;19.88;44.22;102649.41;3086562;28;114395;-57
2021/03/30 03:20:02;;;;;;;;;;;;;;;19.86;44.41;102651.59;3106376;28;115063;-59
2021/03/30 03:21:33;;;;;;;;;;;;;;;19.86;44.56;102651.59;3092973;28;114981;-58
2021/03/30 03:23:05;;;;;;;;;;;;;;;19.86;44.46;102643.19;3107855;28;117190;-58
2021/03/30 03:24:36;;;;;;;;;;;;;;;19.86;44.39;102643.19;3092520;28;115273;-58
2021/03/30 03:26:10;;;;;;;;;;;;;;;19.85;44.32;102641.50;3086436;28;116133;-58
2021/03/30 03:27:42;;;;;;;;;;;;;;;19.84;44.58;102651.03;3089735;28;115729;-58
2021/03/30 03:29:14;;;;;;;;;;;;;;;19.85;44.72;102641.50;3115100;27;115662;-58
2021/03/30 03:30:46;;;;;;;;;;;;;;;19.83;44.60;102646.53;3100184;27;116053;-59
2021/03/30 03:32:21;;;;;;;;;;;;;;;19.84;44.58;102645.44;3089569;28;115364;-58
2021/03/30 03:33:52;;;;;;;;;;;;;;;19.84;44.59;102653.00;3090178;28;115807;-58
2021/03/30 03:35:23;;;;;;;;;;;;;;;19.85;44.49;102647.09;3109940;28;115936;-58
2021/03/30 03:36:59;;;;;;;;;;;;;;;19.84;44.44;102641.78;3096657;27;116179;-59
2021/03/30 03:38:30;;;;;;;;;;;;;;;19.85;44.59;102644.28;3080426;28;114517;-57
2021/03/30 03:40:01;;;;;;;;;;;;;;;19.84;44.47;102651.03;3076860;28;115728;-59
2021/03/30 03:41:32;;;;;;;;;;;;;;;19.84;44.56;102653.00;3080811;28;115749;-58
2021/03/30 03:43:03;;;;;;;;;;;;;;;19.82;44.53;102642.03;3109802;28;115926;-57
2021/03/30 03:44:34;;;;;;;;;;;;;;;19.82;44.56;102644.84;3097219;28;115781;-58
2021/03/30 03:46:05;;;;;;;;;;;;;;;19.82;44.43;102642.03;3086135;28;113712;-59
2021/03/30 03:47:36;;;;;;;;;;;;;;;19.81;44.58;102637.53;3096787;28;113961;-58
2021/03/30 03:49:08;;;;;;;;;;;;;;;19.80;44.32;102644.25;3082127;28;114064;-57
2021/03/30 03:50:40;;;;;;;;;;;;;;;19.81;44.47;102639.47;3083301;28;113868;-58
2021/03/30 03:52:12;;;;;;;;;;;;;;;19.81;44.47;102645.09;3080190;28;113830;-60
2021/03/30 03:53:45;;;;;;;;;;;;;;;19.82;44.80;102642.03;3083141;28;113928;-57
2021/03/30 03:55:16;;;;;;;;;;;;;;;19.81;44.69;102636.66;3087129;28;114147;-58
2021/03/30 03:56:49;;;;;;;;;;;;;;;19.78;44.76;102637.19;3110165;27;113852;-58
2021/03/30 03:58:24;;;;;;;;;;;;;;;19.79;44.78;102647.31;3092502;28;114050;-57
2021/03/30 03:59:58;;;;;;;;;;;;;;;19.82;44.75;102641.19;3084814;28;113800;-59
2021/03/30 04:01:39;;;;;;;;;;;;;;;19.80;44.63;102635.00;3085550;28;113956;-59
2021/03/30 04:03:21;;;;;;;;;;;;;;;19.80;44.49;102638.66;3085310;28;113737;-57
2021/03/30 04:05:02;;;;;;;;;;;;;;;19.81;44.67;102643.13;3076977;28;114526;-58
2021/03/30 04:06:35;;;;;;;;;;;;;;;19.82;44.63;102630.81;3090088;28;113711;-58
2021/03/30 04:08:10;;;;;;;;;;;;;;;19.81;44.67;102631.06;3097317;28;115065;-58
2021/03/30 04:09:43;;;;;;;;;;;;;;;19.80;44.80;102624.63;3110183;27;115241;-58
2021/03/30 04:11:16;;;;;;;;;;;;;;;19.78;44.79;102629.63;3098735;28;115086;-58
2021/03/30 04:12:48;;;;;;;;;;;;;;;19.78;44.80;102618.41;3093376;28;118387;-58
2021/03/30 04:14:20;;;;;;;;;;;;;;;19.82;44.71;102627.16;3109207;27;115227;-58
2021/03/30 04:15:51;;;;;;;;;;;;;;;19.81;44.75;102631.06;3096080;28;114683;-58
2021/03/30 04:17:22;;;;;;;;;;;;;;;19.80;44.67;102629.38;3111670;27;114191;-58
2021/03/30 04:18:53;;;;;;;;;;;;;;;19.79;44.70;102622.94;3099046;28;115337;-58
2021/03/30 04:20:24;;;;;;;;;;;;;;;19.78;44.93;102625.97;3091805;28;115341;-59
2021/03/30 04:21:55;;;;;;;;;;;;;;;19.80;44.57;102624.63;3097071;28;115065;-58
2021/03/30 04:23:27;;;;;;;;;;;;;;;19.77;44.53;102630.75;3089392;28;115380;-58
2021/03/30 04:24:58;;;;;;;;;;;;;;;19.77;44.16;102633.53;3097687;28;115012;-57
2021/03/30 04:26:29;;;;;;;;;;;;;;;19.77;44.48;102633.53;3088936;28;115047;-57
2021/03/30 04:28:00;;;;;;;;;;;;;;;19.78;44.49;102640.00;3088974;28;115135;-58
2021/03/30 04:29:31;;;;;;;;;;;;;;;19.78;44.47;102631.59;3090126;28;115913;-58
2021/03/30 04:31:02;;;;;;;;;;;;;;;19.79;44.37;102624.88;3085847;28;116318;-58
2021/03/30 04:32:33;;;;;;;;;;;;;;;19.77;44.45;102632.69;3084751;28;116044;-58
2021/03/30 04:34:04;;;;;;;;;;;;;;;19.75;44.32;102630.19;3089226;28;116485;-58
2021/03/30 04:35:35;;;;;;;;;;;;;;;19.75;44.19;102632.97;3087746;28;115782;-58
2021/03/30 04:37:06;;;;;;;;;;;;;;;19.75;44.39;102630.19;3087302;28;116494;-58
2021/03/30 04:38:37;;;;;;;;;;;;;;;19.77;44.32;102632.69;3091858;28;114818;-57
2021/03/30 04:40:10;;;;;;;;;;;;;;;19.73;44.42;102632.38;3091241;28;118095;-58
2021/03/30 04:41:41;;;;;;;;;;;;;;;19.74;44.21;102638.84;3111337;27;115813;-57
2021/03/30 04:43:12;;;;;;;;;;;;;;;19.74;44.64;102636.88;3095356;27;115689;-59
2021/03/30 04:44:43;;;;;;;;;;;;;;;19.74;44.29;102636.88;3088232;28;115881;-59
2021/03/30 04:46:18;;;;;;;;;;;;;;;19.74;44.69;102644.44;3111276;27;115693;-59
2021/03/30 04:47:49;;;;;;;;;;;;;;;19.73;44.38;102635.19;3090222;28;116018;-58
2021/03/30 04:49:20;;;;;;;;;;;;;;;19.73;44.58;102643.59;3087276;28;116039;-59
2021/03/30 04:50:51;;;;;;;;;;;;;;;19.72;44.50;102636.28;3090223;28;115865;-58
2021/03/30 04:52:22;;;;;;;;;;;;;;;19.73;44.53;102631.53;3111580;27;113783;-58
2021/03/30 04:53:53;;;;;;;;;;;;;;;19.74;44.41;102645.31;3094951;27;114107;-58
2021/03/30 04:55:24;;;;;;;;;;;;;;;19.73;44.41;102646.41;3111474;27;114042;-58
2021/03/30 04:56:56;;;;;;;;;;;;;;;19.72;44.34;102636.28;3096022;28;113800;-58
2021/03/30 04:58:27;;;;;;;;;;;;;;;19.71;44.41;102640.22;3090753;28;113765;-59
2021/03/30 04:59:58;;;;;;;;;;;;;;;19.70;44.54;102643.28;3117957;27;114068;-58
2021/03/30 05:01:29;;;;;;;;;;;;;;;19.71;44.63;102645.84;3103611;28;113834;-58
2021/03/30 05:03:00;;;;;;;;;;;;;;;19.67;44.32;102644.63;3090953;28;113967;-58
2021/03/30 05:04:31;;;;;;;;;;;;;;;19.68;44.54;102651.94;3097325;28;113833;-58
2021/03/30 05:06:02;;;;;;;;;;;;;;;19.67;44.75;102643.81;3100260;28;113872;-58
2021/03/30 05:07:33;;;;;;;;;;;;;;;19.67;44.63;102647.44;3099879;28;115397;-58
2021/03/30 05:09:05;;;;;;;;;;;;;;;19.69;44.42;102642.44;3088157;28;114866;-58
2021/03/30 05:10:36;;;;;;;;;;;;;;;19.67;44.39;102649.41;3086917;28;113932;-58
2021/03/30 05:12:07;;;;;;;;;;;;;;;19.68;44.40;102651.94;3092630;28;114071;-58
2021/03/30 05:13:38;;;;;;;;;;;;;;;19.68;44.25;102649.13;3087736;28;115153;-58
2021/03/30 05:15:10;;;;;;;;;;;;;;;19.68;44.63;102656.69;3090792;28;114981;-58
2021/03/30 05:16:41;;;;;;;;;;;;;;;19.69;44.39;102658.41;3095430;28;116022;-58
2021/03/30 05:18:12;;;;;;;;;;;;;;;19.67;44.39;102657.84;3091065;28;115177;-57
2021/03/30 05:19:43;;;;;;;;;;;;;;;19.67;44.70;102660.63;3086921;28;115288;-58
2021/03/30 05:21:14;;;;;;;;;;;;;;;19.66;44.80;102659.78;3087012;28;115577;-57
2021/03/30 05:22:45;;;;;;;;;;;;;;;19.67;44.74;102649.41;3087613;28;115724;-58
2021/03/30 05:24:16;;;;;;;;;;;;;;;19.66;44.88;102658.94;3118358;27;115171;-58
2021/03/30 05:25:47;;;;;;;;;;;;;;;19.65;44.82;102663.69;3100961;27;115110;-58
2021/03/30 05:27:18;;;;;;;;;;;;;;;19.64;44.72;102658.34;3087513;28;115152;-58
2021/03/30 05:28:49;;;;;;;;;;;;;;;19.66;44.74;102665.41;3099337;28;115168;-57
2021/03/30 05:30:21;;;;;;;;;;;;;;;19.65;44.91;102662.84;3096274;28;114998;-57
2021/03/30 05:31:52;;;;;;;;;;;;;;;19.60;44.87;102663.63;3087188;28;115310;-58
2021/03/30 05:33:23;;;;;;;;;;;;;;;19.62;44.78;102653.00;3091442;28;113961;-58
2021/03/30 05:34:54;;;;;;;;;;;;;;;19.62;44.97;102650.22;3122276;27;115725;-58
2021/03/30 05:36:25;;;;;;;;;;;;;;;19.62;45.07;102661.41;3111662;27;114629;-57
2021/03/30 05:37:56;;;;;;;;;;;;;;;19.64;44.96;102661.13;3110803;27;115844;-58
2021/03/30 05:39:27;;;;;;;;;;;;;;;19.64;45.16;102661.13;3085107;28;115960;-57
2021/03/30 05:41:01;;;;;;;;;;;;;;;19.64;45.08;102661.13;3083414;28;115803;-58
2021/03/30 05:42:33;;;;;;;;;;;;;;;19.63;44.83;102660.28;3112536;27;116679;-57
2021/03/30 05:44:04;;;;;;;;;;;;;;;19.62;45.21;102661.41;3108147;27;115628;-58
2021/03/30 05:45:35;;;;;;;;;;;;;;;19.60;45.41;102658.00;3097817;28;115078;-58
2021/03/30 05:48:48;;;;;;;;;;;;;;;19.60;45.26;102659.97;3100430;28;115676;-57
2021/03/30 05:50:21;;;;;;;;;;;;;;;19.62;45.34;102664.22;3086287;27;116862;-58
2021/03/30 05:51:53;;;;;;;;;;;;;;;19.60;45.56;102662.78;3109835;27;114647;-58
2021/03/30 05:53:27;;;;;;;;;;;;;;;19.60;45.56;102663.63;3092351;27;115976;-58
2021/03/30 05:54:58;;;;;;;;;;;;;;;19.61;45.26;102665.31;3122202;27;115769;-59
2021/03/30 05:56:30;;;;;;;;;;;;;;;19.59;45.21;102666.69;3095328;27;113991;-58
2021/03/30 05:58:03;;;;;;;;;;;;;;;19.56;45.50;102662.44;3116129;27;113798;-58
2021/03/30 05:59:34;;;;;;;;;;;;;;;19.58;45.44;102668.63;3105209;27;113854;-59
2021/03/30 06:01:05;;;;;;;;;;;;;;;19.58;45.58;102670.63;3112673;27;114114;-57
2021/03/30 06:02:41;;;;;;;;;;;;;;;19.57;45.49;102666.97;3097895;27;114014;-58
2021/03/30 06:04:13;;;;;;;;;;;;;;;19.58;45.38;102674.25;3114508;27;114492;-58
2021/03/30 06:05:45;;;;;;;;;;;;;;;19.59;45.31;102677.91;3099442;28;113822;-58
2021/03/30 06:07:16;;;;;;;;;;;;;;;19.57;45.40;102671.72;3094002;28;114689;-58
2021/03/30 06:08:47;;;;;;;;;;;;;;;19.58;45.33;102674.25;3092372;28;114909;-58
2021/03/30 06:10:20;;;;;;;;;;;;;;;19.57;45.39;102677.31;3098706;28;113882;-58
2021/03/30 06:11:51;;;;;;;;;;;;;;;19.58;45.19;102676.22;3109787;27;114175;-58
2021/03/30 06:13:32;;;;;;;;;;;;;;;19.57;45.45;102671.72;3095287;27;114017;-58
2021/03/30 06:15:05;;;;;;;;;;;;;;;19.56;45.25;102670.88;3087024;28;113948;-59
2021/03/30 06:16:38;;;;;;;;;;;;;;;19.57;45.30;102666.09;3110326;27;114024;-59
2021/03/30 06:18:18;;;;;;;;;;;;;;;19.58;45.11;102660.22;3093903;28;113692;-59
2021/03/30 06:19:52;;;;;;;;;;;;;;;19.57;45.45;102671.72;3095645;28;115088;-58
2021/03/30 06:21:23;;;;;;;;;;;;;;;19.55;45.50;102674.78;3088257;28;115764;-58
2021/03/30 06:22:56;;;;;;;;;;;;;;;19.56;45.46;102664.41;3116406;27;115142;-57
2021/03/30 06:24:27;;;;;;;;;;;;;;;19.55;45.46;102666.34;3106538;27;115125;-58
2021/03/30 06:25:58;;;;;;;;;;;;;;;19.57;45.45;102674.53;3123149;27;115276;-57
2021/03/30 06:27:29;;;;;;;;;;;;;;;19.55;45.48;102671.97;3095769;28;115278;-58
2021/03/30 06:29:00;;;;;;;;;;;;;;;19.54;45.52;102675.88;3089667;28;115480;-58
2021/03/30 06:30:32;;;;;;;;;;;;;;;19.55;45.33;102683.19;3088052;28;115237;-58
2021/03/30 06:32:10;;;;;;;;;;;;;;;19.53;45.32;102674.19;3094352;28;114008;-59
2021/03/30 06:33:51;;;;;;;;;;;;;;;19.53;45.34;102685.41;3089221;28;114480;-58
2021/03/30 06:35:23;;;;;;;;;;;;;;;19.53;45.46;102679.81;3110136;28;115534;-58
2021/03/30 06:36:54;;;;;;;;;;;;;;;19.52;45.27;102680.91;3086002;28;115210;-59
2021/03/30 06:38:45;;;;;;;;;;;;;;;19.52;45.48;102683.72;3084901;28;115288;-58
2021/03/30 06:40:20;;;;;;;;;;;;;;;19.53;45.33;102680.63;3111844;28;116101;-58
2021/03/30 06:42:00;;;;;;;;;;;;;;;19.53;45.33;102689.03;3099014;27;115376;-58
2021/03/30 06:45:12;;;;;;;;;;;;;;;19.55;45.17;102680.38;3097425;28;115796;-58
2021/03/30 06:46:44;;;;;;;;;;;;;;;19.53;45.58;102685.41;3087422;28;116062;-60
2021/03/30 06:48:15;;;;;;;;;;;;;;;19.53;45.46;102680.63;3086131;28;115695;-59
2021/03/30 06:49:58;;;;;;;;;;;;;;;19.54;45.68;102678.66;3110124;27;115757;-58
2021/03/30 06:51:38;;;;;;;;;;;;;;;19.54;45.41;102681.47;3090870;28;116018;-58
2021/03/30 06:53:12;;;;;;;;;;;;;;;19.53;45.63;102685.41;3103055;28;116165;-58
2021/03/30 06:54:51;;;;;;;;;;;;;;;19.53;45.69;102683.44;3121151;27;114651;-58
2021/03/30 06:56:41;;;;;;;;;;;;;;;19.58;45.50;102685.44;3097432;27;116005;-58
2021/03/30 06:58:13;;;;;;;;;;;;;;;19.57;45.87;102680.97;3106622;27;116300;-60
2021/03/30 06:59:46;;;;;;;;;;;;;;;19.60;46.02;102679.59;3094052;28;115926;-57
2021/03/30 07:01:18;;;;;;;;;;;;;;;19.61;45.14;102676.53;3106763;28;115846;-56
2021/03/30 07:02:50;;;;;;;;;;;;;;;19.56;45.00;102682.06;3088620;28;115788;-59
2021/03/30 07:04:21;;;;;;;;;;;;;;;19.57;45.24;102680.13;3102366;28;113729;-57
2021/03/30 07:05:53;;;;;;;;;;;;;;;19.53;44.04;102683.44;3088006;28;114057;-58
2021/03/30 07:07:26;;;;;;;;;;;;;;;19.53;44.14;102680.63;3085950;28;113897;-57
2021/03/30 07:08:58;;;;;;;;;;;;;;;19.53;43.89;102677.81;3097148;28;113894;-58
2021/03/30 07:10:29;;;;;;;;;;;;;;;19.53;44.05;102679.81;3089884;28;113948;-58
2021/03/30 07:12:01;;;;;;;;;;;;;;;19.51;43.48;102674.44;3096643;28;114143;-58
2021/03/30 07:13:32;;;;;;;;;;;;;;;19.52;43.85;102672.50;3089772;28;114050;-57
2021/03/30 07:15:03;;;;;;;;;;;;;;;19.54;43.54;102673.06;3090053;28;113936;-58
2021/03/30 07:16:38;;;;;;;;;;;;;;;19.55;43.87;102669.16;3110515;27;113868;-58
2021/03/30 07:18:19;;;;;;;;;;;;;;;19.53;43.36;102669.41;3094940;28;114266;-57
2021/03/30 07:19:50;;;;;;;;;;;;;;;19.51;43.30;102665.19;3091193;28;113932;-58
2021/03/30 07:21:23;;;;;;;;;;;;;;;19.51;43.24;102676.41;3089776;28;113775;-58
2021/03/30 07:22:55;;;;;;;;;;;;;;;19.50;43.42;102663.47;3096727;28;114087;-58
2021/03/30 07:24:28;;;;;;;;;;;;;;;19.51;43.41;102666.03;3092223;28;113853;-58
2021/03/30 07:26:09;;;;;;;;;;;;;;;19.51;43.57;102665.19;3112790;27;115939;-57
2021/03/30 07:27:50;;;;;;;;;;;;;;;19.49;43.28;102667.38;3090179;28;115335;-57
2021/03/30 07:29:29;;;;;;;;;;;;;;;19.48;42.80;102666.56;3088636;28;115073;-56
2021/03/30 07:31:02;;;;;;;;;;;;;;;19.47;43.37;102661.22;3091160;28;115237;-57
2021/03/30 07:32:41;;;;;;;;;;;;;;;19.48;42.96;102663.75;3096462;28;115166;-58
2021/03/30 07:34:14;;;;;;;;;;;;;;;19.47;42.97;102664.00;3095527;28;118026;-58
2021/03/30 07:35:45;;;;;;;;;;;;;;;19.46;42.84;102659.50;3106636;28;115832;-57
2021/03/30 07:37:20;;;;;;;;;;;;;;;19.44;42.85;102664.53;3099334;28;115211;-58
2021/03/30 07:38:52;;;;;;;;;;;;;;;19.46;42.86;102656.69;3091352;28;116019;-58
2021/03/30 07:40:23;;;;;;;;;;;;;;;19.43;42.86;102660.00;3094798;28;115431;-58
2021/03/30 07:41:55;;;;;;;;;;;;;;;19.44;42.87;102654.16;3084028;28;115015;-58
2021/03/30 07:43:27;;;;;;;;;;;;;;;19.43;42.79;102660.88;3086445;28;115840;-56
2021/03/30 07:44:59;;;;;;;;;;;;;;;19.43;42.87;102660.00;3105278;27;115169;-56
2021/03/30 07:46:30;;;;;;;;;;;;;;;19.46;42.74;102648.28;3105617;27;115111;-58
2021/03/30 07:48:02;;;;;;;;;;;;;;;19.45;42.52;102653.03;3094593;28;114485;-57
2021/03/30 07:49:38;;;;;;;;;;;;;;;19.45;42.76;102653.03;3114053;27;114719;-58
2021/03/30 07:51:11;;;;;;;;;;;;;;;19.45;42.62;102655.00;3102908;27;116431;-57
2021/03/30 07:52:47;;;;;;;;;;;;;;;19.40;42.72;102652.94;3088657;28;115940;-58
2021/03/30 07:54:19;;;;;;;;;;;;;;;19.40;42.75;102650.13;3090186;28;114584;-57
2021/03/30 07:55:50;;;;;;;;;;;;;;;19.38;42.51;102657.97;3087073;28;116482;-58
2021/03/30 07:57:41;;;;;;;;;;;;;;;19.39;42.54;102659.69;3117834;27;115887;-58